sensor_id;sensor_type;location;lat;lon;timestamp;P1;durP1;ratioP1;P2;durP2;ratioP2
15889;SDS011;8043;49.388;12.128;2023-06-26T00:02:05;10.68;;;4.83;;
15889;SDS011;8043;49.388;12.128;2023-06-26T00:07:08;8.28;;;4.85;;
15889;SDS011;8043;49.388;12.128;2023-06-26T00:12:10;6.62;;;4.72;;
15889;SDS011;8043;49.388;12.128;2023-06-26T00:17:12;9.00;;;4.67;;
15889;SDS011;8043;49.388;12.128;2023-06-26T00:22:14;7.62;;;4.72;;
15889;SDS011;8043;49.388;12.128;2023-06-26T00:27:16;8.60;;;4.67;;
15889;SDS011;8043;49.388;12.128;2023-06-26T00:32:19;7.55;;;4.35;;
15889;SDS011;8043;49.388;12.128;2023-06-26T00:37:21;10.75;;;4.60;;
15889;SDS011;8043;49.388;12.128;2023-06-26T00:42:23;10.90;;;5.05;;
15889;SDS011;8043;49.388;12.128;2023-06-26T00:47:25;8.60;;;4.42;;
15889;SDS011;8043;49.388;12.128;2023-06-26T00:52:28;8.23;;;4.40;;
15889;SDS011;8043;49.388;12.128;2023-06-26T00:57:30;8.43;;;5.08;;
15889;SDS011;8043;49.388;12.128;2023-06-26T01:02:33;12.05;;;5.17;;
15889;SDS011;8043;49.388;12.128;2023-06-26T01:07:36;8.65;;;4.70;;
15889;SDS011;8043;49.388;12.128;2023-06-26T01:12:39;7.47;;;5.00;;
15889;SDS011;8043;49.388;12.128;2023-06-26T01:17:42;10.68;;;4.45;;
15889;SDS011;8043;49.388;12.128;2023-06-26T01:27:59;6.03;;;4.15;;
15889;SDS011;8043;49.388;12.128;2023-06-26T01:33:04;8.50;;;5.05;;
15889;SDS011;8043;49.388;12.128;2023-06-26T01:38:15;9.50;;;5.03;;
15889;SDS011;8043;49.388;12.128;2023-06-26T01:49:07;7.83;;;4.80;;
15889;SDS011;8043;49.388;12.128;2023-06-26T01:54:29;9.43;;;4.97;;
15889;SDS011;8043;49.388;12.128;2023-06-26T01:59:32;9.10;;;5.17;;
15889;SDS011;8043;49.388;12.128;2023-06-26T02:04:35;10.10;;;5.42;;
15889;SDS011;8043;49.388;12.128;2023-06-26T02:09:37;11.83;;;5.22;;
15889;SDS011;8043;49.388;12.128;2023-06-26T02:14:40;9.18;;;5.25;;
15889;SDS011;8043;49.388;12.128;2023-06-26T02:19:42;19.05;;;5.20;;
15889;SDS011;8043;49.388;12.128;2023-06-26T02:24:46;9.18;;;5.17;;
15889;SDS011;8043;49.388;12.128;2023-06-26T02:29:51;12.45;;;5.53;;
15889;SDS011;8043;49.388;12.128;2023-06-26T02:34:53;8.15;;;4.62;;
15889;SDS011;8043;49.388;12.128;2023-06-26T02:39:55;11.05;;;5.40;;
15889;SDS011;8043;49.388;12.128;2023-06-26T02:44:57;9.00;;;5.08;;
15889;SDS011;8043;49.388;12.128;2023-06-26T02:50:00;11.22;;;6.10;;
15889;SDS011;8043;49.388;12.128;2023-06-26T02:55:02;7.67;;;4.80;;
15889;SDS011;8043;49.388;12.128;2023-06-26T03:00:06;8.55;;;5.55;;
15889;SDS011;8043;49.388;12.128;2023-06-26T03:05:09;14.85;;;5.17;;
15889;SDS011;8043;49.388;12.128;2023-06-26T03:10:13;11.15;;;5.80;;
15889;SDS011;8043;49.388;12.128;2023-06-26T03:15:16;14.50;;;6.08;;
15889;SDS011;8043;49.388;12.128;2023-06-26T03:20:19;16.73;;;5.95;;
15889;SDS011;8043;49.388;12.128;2023-06-26T03:25:22;9.65;;;6.08;;
15889;SDS011;8043;49.388;12.128;2023-06-26T03:30:24;9.38;;;5.92;;
15889;SDS011;8043;49.388;12.128;2023-06-26T03:35:26;12.50;;;6.33;;
15889;SDS011;8043;49.388;12.128;2023-06-26T03:40:28;8.15;;;4.90;;
15889;SDS011;8043;49.388;12.128;2023-06-26T03:45:30;16.10;;;5.67;;
15889;SDS011;8043;49.388;12.128;2023-06-26T03:50:33;14.93;;;5.87;;
15889;SDS011;8043;49.388;12.128;2023-06-26T03:55:35;13.72;;;5.97;;
15889;SDS011;8043;49.388;12.128;2023-06-26T04:00:38;9.50;;;5.72;;
15889;SDS011;8043;49.388;12.128;2023-06-26T04:05:41;9.70;;;5.45;;
15889;SDS011;8043;49.388;12.128;2023-06-26T04:10:43;16.33;;;6.77;;
15889;SDS011;8043;49.388;12.128;2023-06-26T04:15:46;15.53;;;6.10;;
15889;SDS011;8043;49.388;12.128;2023-06-26T04:21:04;25.35;;;6.25;;
15889;SDS011;8043;49.388;12.128;2023-06-26T04:26:11;20.50;;;5.60;;
15889;SDS011;8043;49.388;12.128;2023-06-26T04:31:14;15.08;;;6.05;;
15889;SDS011;8043;49.388;12.128;2023-06-26T04:36:17;12.78;;;5.47;;
15889;SDS011;8043;49.388;12.128;2023-06-26T04:41:19;12.80;;;6.15;;
15889;SDS011;8043;49.388;12.128;2023-06-26T04:46:21;12.18;;;5.97;;
15889;SDS011;8043;49.388;12.128;2023-06-26T04:51:24;14.70;;;6.67;;
15889;SDS011;8043;49.388;12.128;2023-06-26T04:56:27;10.65;;;6.58;;
15889;SDS011;8043;49.388;12.128;2023-06-26T05:01:31;9.90;;;5.58;;
15889;SDS011;8043;49.388;12.128;2023-06-26T05:06:33;12.20;;;6.60;;
15889;SDS011;8043;49.388;12.128;2023-06-26T05:16:37;14.15;;;6.90;;
15889;SDS011;8043;49.388;12.128;2023-06-26T05:21:39;18.67;;;6.67;;
15889;SDS011;8043;49.388;12.128;2023-06-26T05:26:41;12.60;;;6.40;;
15889;SDS011;8043;49.388;12.128;2023-06-26T05:31:44;11.80;;;7.03;;
15889;SDS011;8043;49.388;12.128;2023-06-26T05:36:47;12.10;;;6.58;;
15889;SDS011;8043;49.388;12.128;2023-06-26T05:41:51;13.47;;;6.70;;
15889;SDS011;8043;49.388;12.128;2023-06-26T05:46:54;11.73;;;6.87;;
15889;SDS011;8043;49.388;12.128;2023-06-26T05:51:57;13.10;;;6.10;;
15889;SDS011;8043;49.388;12.128;2023-06-26T05:56:59;13.40;;;6.40;;
15889;SDS011;8043;49.388;12.128;2023-06-26T06:07:03;12.40;;;6.50;;
15889;SDS011;8043;49.388;12.128;2023-06-26T06:17:07;8.40;;;5.25;;
15889;SDS011;8043;49.388;12.128;2023-06-26T06:22:09;11.60;;;6.05;;
15889;SDS011;8043;49.388;12.128;2023-06-26T06:27:12;12.18;;;6.83;;
15889;SDS011;8043;49.388;12.128;2023-06-26T06:32:15;10.28;;;5.47;;
15889;SDS011;8043;49.388;12.128;2023-06-26T06:37:17;10.13;;;6.17;;
15889;SDS011;8043;49.388;12.128;2023-06-26T06:42:19;13.20;;;6.25;;
15889;SDS011;8043;49.388;12.128;2023-06-26T06:47:21;10.00;;;5.92;;
15889;SDS011;8043;49.388;12.128;2023-06-26T06:52:23;13.45;;;5.85;;
15889;SDS011;8043;49.388;12.128;2023-06-26T07:02:27;11.93;;;6.58;;
15889;SDS011;8043;49.388;12.128;2023-06-26T07:07:30;13.55;;;6.55;;
15889;SDS011;8043;49.388;12.128;2023-06-26T07:12:33;10.35;;;5.92;;
15889;SDS011;8043;49.388;12.128;2023-06-26T07:17:35;14.28;;;5.25;;
15889;SDS011;8043;49.388;12.128;2023-06-26T07:22:39;7.70;;;5.10;;
15889;SDS011;8043;49.388;12.128;2023-06-26T07:27:41;9.08;;;5.37;;
15889;SDS011;8043;49.388;12.128;2023-06-26T07:32:44;8.23;;;5.10;;
15889;SDS011;8043;49.388;12.128;2023-06-26T07:37:46;11.78;;;5.60;;
15889;SDS011;8043;49.388;12.128;2023-06-26T07:42:49;7.70;;;4.85;;
15889;SDS011;8043;49.388;12.128;2023-06-26T07:47:51;10.18;;;5.50;;
15889;SDS011;8043;49.388;12.128;2023-06-26T07:52:53;7.10;;;4.12;;
15889;SDS011;8043;49.388;12.128;2023-06-26T07:57:56;11.08;;;4.62;;
15889;SDS011;8043;49.388;12.128;2023-06-26T08:08:00;12.00;;;4.83;;
15889;SDS011;8043;49.388;12.128;2023-06-26T08:13:03;6.85;;;4.17;;
15889;SDS011;8043;49.388;12.128;2023-06-26T08:18:05;10.18;;;5.17;;
15889;SDS011;8043;49.388;12.128;2023-06-26T08:23:07;8.78;;;4.05;;
15889;SDS011;8043;49.388;12.128;2023-06-26T08:28:10;12.90;;;4.58;;
15889;SDS011;8043;49.388;12.128;2023-06-26T08:33:12;12.63;;;4.28;;
15889;SDS011;8043;49.388;12.128;2023-06-26T08:38:14;9.10;;;4.45;;
15889;SDS011;8043;49.388;12.128;2023-06-26T08:43:16;5.85;;;4.15;;
15889;SDS011;8043;49.388;12.128;2023-06-26T08:48:20;5.80;;;3.72;;
15889;SDS011;8043;49.388;12.128;2023-06-26T08:53:29;10.05;;;4.42;;
15889;SDS011;8043;49.388;12.128;2023-06-26T08:58:37;9.18;;;4.30;;
15889;SDS011;8043;49.388;12.128;2023-06-26T09:03:40;6.05;;;4.28;;
15889;SDS011;8043;49.388;12.128;2023-06-26T09:08:44;7.85;;;4.28;;
15889;SDS011;8043;49.388;12.128;2023-06-26T09:13:47;8.18;;;4.60;;
15889;SDS011;8043;49.388;12.128;2023-06-26T09:18:49;8.75;;;4.83;;
15889;SDS011;8043;49.388;12.128;2023-06-26T09:23:53;9.50;;;4.03;;
15889;SDS011;8043;49.388;12.128;2023-06-26T09:28:55;8.08;;;4.00;;
15889;SDS011;8043;49.388;12.128;2023-06-26T09:33:58;6.80;;;4.23;;
15889;SDS011;8043;49.388;12.128;2023-06-26T09:39:06;8.00;;;4.42;;
15889;SDS011;8043;49.388;12.128;2023-06-26T09:44:07;6.50;;;3.80;;
15889;SDS011;8043;49.388;12.128;2023-06-26T09:49:12;6.33;;;4.00;;
15889;SDS011;8043;49.388;12.128;2023-06-26T09:54:15;8.33;;;4.35;;
15889;SDS011;8043;49.388;12.128;2023-06-26T09:59:19;11.00;;;5.15;;
15889;SDS011;8043;49.388;12.128;2023-06-26T10:04:21;7.92;;;4.70;;
15889;SDS011;8043;49.388;12.128;2023-06-26T10:09:23;9.90;;;4.20;;
15889;SDS011;8043;49.388;12.128;2023-06-26T10:14:34;6.58;;;4.03;;
15889;SDS011;8043;49.388;12.128;2023-06-26T10:19:37;10.33;;;3.80;;
15889;SDS011;8043;49.388;12.128;2023-06-26T10:24:40;9.68;;;3.75;;
15889;SDS011;8043;49.388;12.128;2023-06-26T10:29:47;12.50;;;4.60;;
15889;SDS011;8043;49.388;12.128;2023-06-26T10:34:51;10.55;;;3.98;;
15889;SDS011;8043;49.388;12.128;2023-06-26T10:39:54;12.58;;;4.17;;
15889;SDS011;8043;49.388;12.128;2023-06-26T10:44:56;7.42;;;4.22;;
15889;SDS011;8043;49.388;12.128;2023-06-26T10:55:31;5.00;;;4.03;;
15889;SDS011;8043;49.388;12.128;2023-06-26T11:00:33;5.47;;;3.85;;
15889;SDS011;8043;49.388;12.128;2023-06-26T11:05:35;5.95;;;3.72;;
15889;SDS011;8043;49.388;12.128;2023-06-26T11:10:53;8.83;;;4.47;;
15889;SDS011;8043;49.388;12.128;2023-06-26T11:15:58;7.00;;;4.33;;
15889;SDS011;8043;49.388;12.128;2023-06-26T11:21:07;7.95;;;3.90;;
15889;SDS011;8043;49.388;12.128;2023-06-26T11:26:17;7.50;;;4.53;;
15889;SDS011;8043;49.388;12.128;2023-06-26T11:31:28;7.37;;;4.30;;
15889;SDS011;8043;49.388;12.128;2023-06-26T11:36:34;7.78;;;4.40;;
15889;SDS011;8043;49.388;12.128;2023-06-26T11:41:38;8.70;;;4.55;;
15889;SDS011;8043;49.388;12.128;2023-06-26T11:46:41;8.30;;;4.12;;
15889;SDS011;8043;49.388;12.128;2023-06-26T11:51:43;7.97;;;4.25;;
15889;SDS011;8043;49.388;12.128;2023-06-26T11:56:51;10.13;;;3.92;;
15889;SDS011;8043;49.388;12.128;2023-06-26T12:01:57;6.10;;;3.62;;
15889;SDS011;8043;49.388;12.128;2023-06-26T12:06:59;9.73;;;4.07;;
15889;SDS011;8043;49.388;12.128;2023-06-26T12:12:03;4.83;;;3.43;;
15889;SDS011;8043;49.388;12.128;2023-06-26T12:17:11;6.12;;;3.17;;
15889;SDS011;8043;49.388;12.128;2023-06-26T12:22:11;7.17;;;3.55;;
15889;SDS011;8043;49.388;12.128;2023-06-26T12:27:13;7.83;;;4.05;;
15889;SDS011;8043;49.388;12.128;2023-06-26T12:32:16;13.03;;;4.50;;
15889;SDS011;8043;49.388;12.128;2023-06-26T12:37:18;10.35;;;4.05;;
15889;SDS011;8043;49.388;12.128;2023-06-26T12:42:32;7.30;;;3.87;;
15889;SDS011;8043;49.388;12.128;2023-06-26T12:47:29;8.15;;;3.70;;
15889;SDS011;8043;49.388;12.128;2023-06-26T12:52:33;6.10;;;2.95;;
15889;SDS011;8043;49.388;12.128;2023-06-26T12:57:38;7.60;;;3.58;;
15889;SDS011;8043;49.388;12.128;2023-06-26T13:02:40;4.92;;;3.45;;
15889;SDS011;8043;49.388;12.128;2023-06-26T13:07:42;9.38;;;3.65;;
15889;SDS011;8043;49.388;12.128;2023-06-26T13:12:44;6.70;;;4.08;;
15889;SDS011;8043;49.388;12.128;2023-06-26T13:17:47;7.17;;;4.17;;
15889;SDS011;8043;49.388;12.128;2023-06-26T13:22:49;6.28;;;4.17;;
15889;SDS011;8043;49.388;12.128;2023-06-26T13:27:51;9.85;;;4.45;;
15889;SDS011;8043;49.388;12.128;2023-06-26T13:32:53;5.85;;;3.65;;
15889;SDS011;8043;49.388;12.128;2023-06-26T13:37:55;9.10;;;3.87;;
15889;SDS011;8043;49.388;12.128;2023-06-26T13:42:58;6.30;;;4.20;;
15889;SDS011;8043;49.388;12.128;2023-06-26T13:48:00;6.70;;;3.43;;
15889;SDS011;8043;49.388;12.128;2023-06-26T13:53:03;8.00;;;3.85;;
15889;SDS011;8043;49.388;12.128;2023-06-26T13:58:06;5.25;;;3.75;;
15889;SDS011;8043;49.388;12.128;2023-06-26T14:03:10;6.97;;;4.03;;
15889;SDS011;8043;49.388;12.128;2023-06-26T14:08:12;7.17;;;3.50;;
15889;SDS011;8043;49.388;12.128;2023-06-26T14:13:15;5.97;;;3.45;;
15889;SDS011;8043;49.388;12.128;2023-06-26T14:18:17;9.50;;;4.20;;
15889;SDS011;8043;49.388;12.128;2023-06-26T14:23:21;5.33;;;3.10;;
15889;SDS011;8043;49.388;12.128;2023-06-26T14:28:23;6.28;;;3.75;;
15889;SDS011;8043;49.388;12.128;2023-06-26T14:33:25;15.90;;;3.73;;
15889;SDS011;8043;49.388;12.128;2023-06-26T14:38:27;5.10;;;3.20;;
15889;SDS011;8043;49.388;12.128;2023-06-26T14:43:30;4.53;;;3.07;;
15889;SDS011;8043;49.388;12.128;2023-06-26T14:48:32;7.00;;;3.80;;
15889;SDS011;8043;49.388;12.128;2023-06-26T14:53:34;8.88;;;4.05;;
15889;SDS011;8043;49.388;12.128;2023-06-26T14:58:36;5.37;;;3.55;;
15889;SDS011;8043;49.388;12.128;2023-06-26T15:03:38;6.67;;;3.75;;
15889;SDS011;8043;49.388;12.128;2023-06-26T15:08:41;6.60;;;3.13;;
15889;SDS011;8043;49.388;12.128;2023-06-26T15:13:43;9.88;;;3.83;;
15889;SDS011;8043;49.388;12.128;2023-06-26T15:18:45;5.05;;;3.25;;
15889;SDS011;8043;49.388;12.128;2023-06-26T15:23:47;5.87;;;3.50;;
15889;SDS011;8043;49.388;12.128;2023-06-26T15:28:52;5.10;;;3.22;;
15889;SDS011;8043;49.388;12.128;2023-06-26T15:33:55;5.43;;;3.37;;
15889;SDS011;8043;49.388;12.128;2023-06-26T15:38:57;8.30;;;3.90;;
15889;SDS011;8043;49.388;12.128;2023-06-26T15:43:59;6.20;;;4.00;;
15889;SDS011;8043;49.388;12.128;2023-06-26T15:49:01;5.33;;;3.17;;
15889;SDS011;8043;49.388;12.128;2023-06-26T15:54:04;6.58;;;3.67;;
15889;SDS011;8043;49.388;12.128;2023-06-26T15:59:06;5.42;;;3.42;;
15889;SDS011;8043;49.388;12.128;2023-06-26T16:04:09;5.67;;;3.83;;
15889;SDS011;8043;49.388;12.128;2023-06-26T16:09:11;6.67;;;3.67;;
15889;SDS011;8043;49.388;12.128;2023-06-26T16:14:15;4.67;;;3.47;;
15889;SDS011;8043;49.388;12.128;2023-06-26T16:19:17;4.95;;;3.33;;
15889;SDS011;8043;49.388;12.128;2023-06-26T16:24:20;10.13;;;3.80;;
15889;SDS011;8043;49.388;12.128;2023-06-26T16:29:22;6.03;;;4.00;;
15889;SDS011;8043;49.388;12.128;2023-06-26T16:34:24;7.30;;;4.55;;
15889;SDS011;8043;49.388;12.128;2023-06-26T16:39:27;6.12;;;3.72;;
15889;SDS011;8043;49.388;12.128;2023-06-26T16:44:29;5.33;;;3.77;;
15889;SDS011;8043;49.388;12.128;2023-06-26T16:49:31;8.40;;;4.10;;
15889;SDS011;8043;49.388;12.128;2023-06-26T16:54:34;7.72;;;4.60;;
15889;SDS011;8043;49.388;12.128;2023-06-26T16:59:36;8.35;;;4.67;;
15889;SDS011;8043;49.388;12.128;2023-06-26T17:04:38;6.95;;;4.40;;
15889;SDS011;8043;49.388;12.128;2023-06-26T17:09:41;6.75;;;4.08;;
15889;SDS011;8043;49.388;12.128;2023-06-26T17:14:43;9.73;;;4.87;;
15889;SDS011;8043;49.388;12.128;2023-06-26T17:19:45;9.90;;;3.92;;
15889;SDS011;8043;49.388;12.128;2023-06-26T17:24:47;11.65;;;5.03;;
15889;SDS011;8043;49.388;12.128;2023-06-26T17:29:49;5.50;;;4.15;;
15889;SDS011;8043;49.388;12.128;2023-06-26T17:34:52;9.58;;;4.87;;
15889;SDS011;8043;49.388;12.128;2023-06-26T17:39:54;9.88;;;5.05;;
15889;SDS011;8043;49.388;12.128;2023-06-26T17:44:57;11.45;;;4.42;;
15889;SDS011;8043;49.388;12.128;2023-06-26T17:49:59;6.78;;;4.80;;
15889;SDS011;8043;49.388;12.128;2023-06-26T17:55:02;7.58;;;4.78;;
15889;SDS011;8043;49.388;12.128;2023-06-26T18:00:09;10.48;;;4.75;;
15889;SDS011;8043;49.388;12.128;2023-06-26T18:05:09;9.33;;;4.97;;
15889;SDS011;8043;49.388;12.128;2023-06-26T18:10:12;8.48;;;4.25;;
15889;SDS011;8043;49.388;12.128;2023-06-26T18:15:15;8.40;;;5.15;;
15889;SDS011;8043;49.388;12.128;2023-06-26T18:20:18;6.67;;;4.55;;
15889;SDS011;8043;49.388;12.128;2023-06-26T18:25:20;8.13;;;4.92;;
15889;SDS011;8043;49.388;12.128;2023-06-26T18:30:23;8.13;;;4.72;;
15889;SDS011;8043;49.388;12.128;2023-06-26T18:35:25;10.13;;;4.67;;
15889;SDS011;8043;49.388;12.128;2023-06-26T18:40:27;9.68;;;4.83;;
15889;SDS011;8043;49.388;12.128;2023-06-26T18:45:30;10.63;;;4.60;;
15889;SDS011;8043;49.388;12.128;2023-06-26T18:50:33;6.40;;;4.45;;
15889;SDS011;8043;49.388;12.128;2023-06-26T18:55:35;8.83;;;5.03;;
15889;SDS011;8043;49.388;12.128;2023-06-26T19:00:38;7.57;;;4.00;;
15889;SDS011;8043;49.388;12.128;2023-06-26T19:05:40;9.65;;;4.90;;
15889;SDS011;8043;49.388;12.128;2023-06-26T19:10:42;7.70;;;4.62;;
15889;SDS011;8043;49.388;12.128;2023-06-26T19:15:46;7.15;;;4.28;;
15889;SDS011;8043;49.388;12.128;2023-06-26T19:20:48;6.67;;;4.20;;
15889;SDS011;8043;49.388;12.128;2023-06-26T19:25:50;7.65;;;4.65;;
15889;SDS011;8043;49.388;12.128;2023-06-26T19:30:53;6.70;;;4.42;;
15889;SDS011;8043;49.388;12.128;2023-06-26T19:40:56;12.07;;;4.85;;
15889;SDS011;8043;49.388;12.128;2023-06-26T19:51:00;12.65;;;4.40;;
15889;SDS011;8043;49.388;12.128;2023-06-26T19:56:03;11.63;;;4.33;;
15889;SDS011;8043;49.388;12.128;2023-06-26T20:01:06;10.00;;;4.10;;
15889;SDS011;8043;49.388;12.128;2023-06-26T20:06:08;14.78;;;5.53;;
15889;SDS011;8043;49.388;12.128;2023-06-26T20:11:11;8.75;;;5.00;;
15889;SDS011;8043;49.388;12.128;2023-06-26T20:16:13;9.13;;;4.37;;
15889;SDS011;8043;49.388;12.128;2023-06-26T20:21:16;8.08;;;4.62;;
15889;SDS011;8043;49.388;12.128;2023-06-26T20:31:19;11.40;;;4.83;;
15889;SDS011;8043;49.388;12.128;2023-06-26T20:36:22;15.10;;;4.37;;
15889;SDS011;8043;49.388;12.128;2023-06-26T20:46:26;23.38;;;5.10;;
15889;SDS011;8043;49.388;12.128;2023-06-26T20:51:30;7.33;;;4.30;;
15889;SDS011;8043;49.388;12.128;2023-06-26T20:56:32;8.08;;;4.30;;
15889;SDS011;8043;49.388;12.128;2023-06-26T21:06:36;12.37;;;3.33;;
15889;SDS011;8043;49.388;12.128;2023-06-26T21:11:38;8.70;;;3.52;;
15889;SDS011;8043;49.388;12.128;2023-06-26T21:21:42;5.28;;;3.35;;
15889;SDS011;8043;49.388;12.128;2023-06-26T21:31:52;5.78;;;3.30;;
15889;SDS011;8043;49.388;12.128;2023-06-26T21:36:54;6.33;;;2.90;;
15889;SDS011;8043;49.388;12.128;2023-06-26T21:41:56;6.45;;;3.15;;
15889;SDS011;8043;49.388;12.128;2023-06-26T21:46:58;9.43;;;2.90;;
15889;SDS011;8043;49.388;12.128;2023-06-26T21:57:02;3.95;;;2.60;;
15889;SDS011;8043;49.388;12.128;2023-06-26T22:02:05;8.85;;;2.87;;
15889;SDS011;8043;49.388;12.128;2023-06-26T22:12:09;3.92;;;2.72;;
15889;SDS011;8043;49.388;12.128;2023-06-26T22:17:11;5.47;;;2.60;;
15889;SDS011;8043;49.388;12.128;2023-06-26T22:22:14;6.17;;;2.58;;
15889;SDS011;8043;49.388;12.128;2023-06-26T22:27:16;5.05;;;2.55;;
15889;SDS011;8043;49.388;12.128;2023-06-26T22:32:18;5.40;;;2.52;;
15889;SDS011;8043;49.388;12.128;2023-06-26T22:37:21;5.80;;;2.80;;
15889;SDS011;8043;49.388;12.128;2023-06-26T22:42:23;4.85;;;2.00;;
15889;SDS011;8043;49.388;12.128;2023-06-26T22:47:25;4.62;;;3.05;;
15889;SDS011;8043;49.388;12.128;2023-06-26T22:52:28;6.30;;;2.12;;
15889;SDS011;8043;49.388;12.128;2023-06-26T23:02:31;5.03;;;2.87;;
15889;SDS011;8043;49.388;12.128;2023-06-26T23:07:34;5.40;;;3.05;;
15889;SDS011;8043;49.388;12.128;2023-06-26T23:12:36;8.83;;;2.83;;
15889;SDS011;8043;49.388;12.128;2023-06-26T23:17:38;10.55;;;3.27;;
15889;SDS011;8043;49.388;12.128;2023-06-26T23:22:41;8.33;;;2.85;;
15889;SDS011;8043;49.388;12.128;2023-06-26T23:27:44;8.98;;;2.83;;
15889;SDS011;8043;49.388;12.128;2023-06-26T23:32:46;10.48;;;3.10;;
15889;SDS011;8043;49.388;12.128;2023-06-26T23:37:49;4.37;;;2.62;;
15889;SDS011;8043;49.388;12.128;2023-06-26T23:42:56;4.33;;;2.50;;
15889;SDS011;8043;49.388;12.128;2023-06-26T23:48:00;8.65;;;2.70;;
15889;SDS011;8043;49.388;12.128;2023-06-26T23:53:02;7.40;;;2.72;;
15889;SDS011;8043;49.388;12.128;2023-06-26T23:58:04;6.03;;;2.20;;
